createdAt,value
2022-09-15T00:00:40.944Z,99504.16
2022-09-15T00:02:44.125Z,99510.19
2022-09-15T00:04:46.893Z,99511.22
2022-09-15T00:06:49.659Z,99509.59
2022-09-15T00:08:54.404Z,99513.91
2022-09-15T00:11:03.337Z,99511.44
2022-09-15T00:13:06.188Z,99509.88
2022-09-15T00:15:09.746Z,99521.44
2022-09-15T00:17:12.563Z,99517.06
2022-09-15T00:19:15.392Z,99519.72
2022-09-15T00:21:20.501Z,99514.91
2022-09-15T00:23:23.265Z,99515.97
2022-09-15T00:25:27.469Z,99508.00
2022-09-15T00:27:30.302Z,99503.66
2022-09-15T00:29:33.125Z,99510.78
2022-09-15T00:31:35.944Z,99503.53
2022-09-15T00:33:39.073Z,99496.47
2022-09-15T00:35:44.273Z,99491.19
2022-09-15T00:37:46.964Z,99498.53
2022-09-15T00:39:50.568Z,99493.41
2022-09-15T00:41:54.748Z,99493.19
2022-09-15T00:43:59.931Z,99492.94
2022-09-15T00:46:02.717Z,99485.81
2022-09-15T00:48:07.160Z,99482.09
2022-09-15T00:50:13.798Z,99485.75
2022-09-15T00:52:21.756Z,99493.81
2022-09-15T00:54:30.040Z,99481.81
2022-09-15T00:56:34.868Z,99481.72
2022-09-15T00:58:58.252Z,99484.41
2022-09-15T01:01:03.697Z,99486.84
2022-09-15T01:03:06.562Z,99489.66
2022-09-15T01:05:12.054Z,99482.66
2022-09-15T01:07:19.910Z,99489.72
2022-09-15T01:09:29.410Z,99495.22
2022-09-15T01:11:33.035Z,99487.94
2022-09-15T01:13:35.760Z,99481.69
2022-09-15T01:15:49.113Z,99479.59
2022-09-15T01:18:06.798Z,99480.59
2022-09-15T01:20:34.507Z,99487.03
2022-09-15T01:22:42.704Z,99485.03
2022-09-15T01:24:59.194Z,99489.16
2022-09-15T01:27:30.921Z,99487.38
2022-09-15T01:29:57.411Z,99486.47
2022-09-15T01:32:25.606Z,99487.38
2022-09-15T01:34:34.667Z,99481.06
2022-09-15T01:36:43.927Z,99479.25
2022-09-15T01:38:55.446Z,99479.94
2022-09-15T01:41:03.043Z,99485.00
2022-09-15T01:43:07.560Z,99483.28
2022-09-15T01:45:13.558Z,99475.78
2022-09-15T01:47:20.180Z,99478.13
2022-09-15T01:49:26.999Z,99481.63
2022-09-15T01:51:32.556Z,99478.94
2022-09-15T01:53:35.967Z,99486.88
2022-09-15T01:55:44.084Z,99487.00
2022-09-15T01:57:46.959Z,99485.09
2022-09-15T01:59:50.424Z,99475.41
2022-09-15T02:02:00.383Z,99469.31
2022-09-15T02:04:08.875Z,99472.75
2022-09-15T02:06:17.702Z,99466.56
2022-09-15T02:08:28.438Z,99471.09
2022-09-15T02:10:36.774Z,99471.03
2022-09-15T02:12:47.913Z,99460.66
2022-09-15T02:14:58.238Z,99460.91
2022-09-15T02:17:03.519Z,99466.59
2022-09-15T02:19:18.149Z,99457.91
2022-09-15T02:21:27.935Z,99464.09
2022-09-15T02:23:36.746Z,99466.50
2022-09-15T02:25:43.388Z,99462.84
2022-09-15T02:27:51.015Z,99462.66
2022-09-15T02:29:57.204Z,99460.91
2022-09-15T02:32:07.241Z,99466.19
2022-09-15T02:34:14.773Z,99468.72
2022-09-15T02:36:20.639Z,99466.91
2022-09-15T02:38:23.660Z,99462.72
2022-09-15T02:40:28.579Z,99464.22
2022-09-15T02:42:33.234Z,99465.97
2022-09-15T02:44:35.852Z,99470.78
2022-09-15T02:46:39.136Z,99469.06
2022-09-15T02:48:43.331Z,99466.31
2022-09-15T02:50:46.047Z,99461.88
2022-09-15T02:52:48.880Z,99457.47
2022-09-15T02:54:51.627Z,99457.41
2022-09-15T02:56:54.384Z,99468.09
2022-09-15T02:58:57.199Z,99459.53
2022-09-15T03:01:01.742Z,99456.72
2022-09-15T03:03:04.798Z,99459.25
2022-09-15T03:05:10.550Z,99467.25
2022-09-15T03:07:13.312Z,99471.75
2022-09-15T03:09:16.093Z,99467.31
2022-09-15T03:11:20.353Z,99476.28
2022-09-15T03:13:23.238Z,99480.47
2022-09-15T03:15:27.341Z,99478.75
2022-09-15T03:17:30.177Z,99471.97
2022-09-15T03:19:32.915Z,99468.56
2022-09-15T03:21:37.718Z,99471.13
2022-09-15T03:23:41.345Z,99475.38
2022-09-15T03:25:46.711Z,99477.19
2022-09-15T03:27:49.491Z,99475.47
2022-09-15T03:29:52.245Z,99474.78
2022-09-15T03:31:55.461Z,99474.94
2022-09-15T03:33:58.273Z,99475.09
2022-09-15T03:36:01.471Z,99476.06
2022-09-15T03:38:05.657Z,99469.97
2022-09-15T03:40:10.403Z,99480.38
2022-09-15T03:42:14.069Z,99483.00
2022-09-15T03:44:16.900Z,99480.38
2022-09-15T03:46:20.348Z,99475.09
2022-09-15T03:48:23.622Z,99482.84
2022-09-15T03:50:26.489Z,99477.53
2022-09-15T03:52:32.422Z,99473.94
2022-09-15T03:54:36.609Z,99473.22
2022-09-15T03:56:39.420Z,99478.53
2022-09-15T03:58:42.251Z,99479.50
2022-09-15T04:00:45.697Z,99476.91
2022-09-15T04:02:48.624Z,99477.88
2022-09-15T04:04:51.431Z,99477.94
2022-09-15T04:06:54.200Z,99483.19
2022-09-15T04:08:57.898Z,99481.44
2022-09-15T04:11:05.625Z,99477.75
2022-09-15T04:13:08.770Z,99488.28
2022-09-15T04:15:12.016Z,99496.28
2022-09-15T04:17:15.482Z,99502.63
2022-09-15T04:19:18.357Z,99506.41
2022-09-15T04:21:22.966Z,99513.00
2022-09-15T04:23:25.742Z,99514.13
2022-09-15T04:25:29.379Z,99511.53
2022-09-15T04:27:35.521Z,99514.81
2022-09-15T04:29:38.238Z,99508.16
2022-09-15T04:31:41.149Z,99515.28
2022-09-15T04:33:44.843Z,99519.94
2022-09-15T04:35:48.173Z,99524.19
2022-09-15T04:37:51.647Z,99527.59
2022-09-15T04:39:54.676Z,99517.97
2022-09-15T04:41:57.582Z,99525.75
2022-09-15T04:44:02.093Z,99527.25
2022-09-15T04:46:05.226Z,99528.94
2022-09-15T04:48:07.997Z,99527.94
2022-09-15T04:50:11.129Z,99531.47
2022-09-15T04:52:13.944Z,99524.63
2022-09-15T04:54:16.687Z,99530.00
2022-09-15T04:56:21.293Z,99522.72
2022-09-15T04:58:23.858Z,99526.91
2022-09-15T05:00:27.950Z,99526.13
2022-09-15T05:02:30.810Z,99520.66
2022-09-15T05:04:34.838Z,99526.59
2022-09-15T05:06:38.913Z,99525.47
2022-09-15T05:08:42.130Z,99528.28
2022-09-15T05:10:45.140Z,99538.28
2022-09-15T05:12:47.887Z,99539.13
2022-09-15T05:14:50.710Z,99548.69
2022-09-15T05:16:54.815Z,99545.56
2022-09-15T05:18:59.638Z,99545.22
2022-09-15T05:21:03.882Z,99545.41
2022-09-15T05:23:06.622Z,99551.88
2022-09-15T05:25:10.118Z,99551.13
2022-09-15T05:27:12.809Z,99549.97
2022-09-15T05:29:15.546Z,99554.59
2022-09-15T05:31:19.804Z,99562.75
2022-09-15T05:33:24.536Z,99561.19
2022-09-15T05:35:27.310Z,99570.16
2022-09-15T05:37:30.053Z,99577.72
2022-09-15T05:39:32.883Z,99583.38
2022-09-15T05:41:35.670Z,99587.34
2022-09-15T05:43:40.177Z,99596.28
2022-09-15T05:45:43.125Z,99604.78
2022-09-15T05:47:45.905Z,99602.22
2022-09-15T05:49:50.116Z,99595.09
2022-09-15T05:51:52.879Z,99597.03
2022-09-15T05:53:55.715Z,99606.75
2022-09-15T05:55:59.734Z,99612.13
2022-09-15T05:58:02.460Z,99611.31
2022-09-15T06:00:06.196Z,99617.47
2022-09-15T06:02:15.187Z,99610.81
2022-09-15T06:04:17.972Z,99617.72
2022-09-15T06:06:23.121Z,99618.66
2022-09-15T06:08:25.914Z,99626.13
2022-09-15T06:10:28.686Z,99627.38
2022-09-15T06:12:31.624Z,99624.81
2022-09-15T06:14:34.421Z,99621.19
2022-09-15T06:16:37.252Z,99627.84
2022-09-15T06:18:41.336Z,99623.72
2022-09-15T06:20:44.115Z,99620.50
2022-09-15T06:22:48.388Z,99625.88
2022-09-15T06:24:52.233Z,99632.03
2022-09-15T06:26:54.996Z,99628.97
2022-09-15T06:28:59.566Z,99632.50
2022-09-15T06:31:02.418Z,99635.97
2022-09-15T06:33:16.482Z,99637.84
2022-09-15T06:35:19.628Z,99631.53
2022-09-15T06:37:22.480Z,99634.28
2022-09-15T06:39:26.673Z,99635.38
2022-09-15T06:41:42.652Z,99645.97
2022-09-15T06:43:53.963Z,99653.94
2022-09-15T06:46:03.869Z,99661.19
2022-09-15T06:48:23.529Z,99669.63
2022-09-15T06:50:31.029Z,99676.19
2022-09-15T06:52:34.000Z,99677.88
2022-09-15T06:54:38.643Z,99686.59
2022-09-15T06:56:41.478Z,99692.06
2022-09-15T06:58:45.803Z,99704.69
2022-09-15T07:00:48.737Z,99696.09
2022-09-15T07:02:51.700Z,99702.41
2022-09-15T07:04:54.662Z,99703.22
2022-09-15T07:06:57.619Z,99708.91
2022-09-15T07:09:01.685Z,99709.72
2022-09-15T07:11:08.404Z,99709.81
2022-09-15T07:13:11.499Z,99715.13
2022-09-15T07:15:14.353Z,99712.44
2022-09-15T07:17:17.147Z,99722.44
2022-09-15T07:19:19.891Z,99718.16
2022-09-15T07:21:22.653Z,99724.31
2022-09-15T07:23:25.524Z,99731.34
2022-09-15T07:25:28.471Z,99730.63
2022-09-15T07:27:32.670Z,99723.66
2022-09-15T07:29:37.820Z,99734.34
2022-09-15T07:31:41.066Z,99736.00
2022-09-15T07:33:44.052Z,99736.63
2022-09-15T07:35:46.916Z,99740.03
2022-09-15T07:37:49.798Z,99735.56
2022-09-15T07:39:52.572Z,99737.28
2022-09-15T07:41:55.355Z,99738.88
2022-09-15T07:44:01.282Z,99741.28
2022-09-15T07:46:04.856Z,99742.97
2022-09-15T07:48:07.669Z,99748.09
2022-09-15T07:50:10.785Z,99744.50
2022-09-15T07:52:13.557Z,99752.16
2022-09-15T07:54:21.086Z,99748.56
2022-09-15T07:56:25.640Z,99748.53
2022-09-15T07:58:28.496Z,99756.38
2022-09-15T08:00:32.851Z,99752.19
2022-09-15T08:02:35.638Z,99754.66
2022-09-15T08:04:38.404Z,99757.53
2022-09-15T08:06:41.181Z,99753.97
2022-09-15T08:08:44.880Z,99753.00
2022-09-15T08:10:47.660Z,99753.94
2022-09-15T08:12:50.830Z,99755.63
2022-09-15T08:14:53.575Z,99762.50
2022-09-15T08:17:00.925Z,99759.03
2022-09-15T08:19:03.782Z,99756.19
2022-09-15T08:21:07.792Z,99757.09
2022-09-15T08:23:11.179Z,99759.56
2022-09-15T08:25:13.940Z,99755.41
2022-09-15T08:27:16.656Z,99762.50
2022-09-15T08:29:20.010Z,99759.09
2022-09-15T08:31:24.848Z,99772.91
2022-09-15T08:33:30.056Z,99777.09
2022-09-15T08:35:34.309Z,99775.25
2022-09-15T08:37:37.086Z,99781.34
2022-09-15T08:39:39.887Z,99781.44
2022-09-15T08:41:45.027Z,99778.19
2022-09-15T08:43:54.733Z,99786.06
2022-09-15T08:46:04.629Z,99791.88
2022-09-15T08:48:08.446Z,99796.06
2022-09-15T08:50:21.586Z,99789.69
2022-09-15T08:52:29.552Z,99793.38
2022-09-15T08:54:34.790Z,99794.19
2022-09-15T08:56:38.056Z,99795.03
2022-09-15T08:58:40.819Z,99799.63
2022-09-15T09:00:46.503Z,99800.59
2022-09-15T09:03:06.305Z,99796.00
2022-09-15T09:05:34.231Z,99795.31
2022-09-15T09:07:59.684Z,99804.03
2022-09-15T09:10:13.547Z,99803.97
2022-09-15T09:12:40.988Z,99804.66
2022-09-15T09:14:57.895Z,99800.09
2022-09-15T09:17:17.002Z,99795.72
2022-09-15T09:19:38.882Z,99801.78
2022-09-15T09:21:48.079Z,99798.88
2022-09-15T09:23:56.865Z,99808.38
2022-09-15T09:26:01.949Z,99812.72
2022-09-15T09:28:07.664Z,99813.66
2022-09-15T09:30:17.412Z,99819.41
2022-09-15T09:32:24.338Z,99811.94
2022-09-15T09:34:32.738Z,99817.34
2022-09-15T09:36:35.561Z,99819.09
2022-09-15T09:38:41.682Z,99826.03
2022-09-15T09:40:44.894Z,99824.34
2022-09-15T09:42:48.102Z,99831.31
2022-09-15T09:44:50.915Z,99828.84
2022-09-15T09:46:53.720Z,99821.09
2022-09-15T09:49:02.772Z,99825.22
2022-09-15T09:51:05.779Z,99820.59
2022-09-15T09:53:26.751Z,99817.88
2022-09-15T09:55:30.952Z,99823.38
2022-09-15T09:57:40.661Z,99822.44
2022-09-15T09:59:45.362Z,99811.78
2022-09-15T10:02:05.877Z,99820.41
2022-09-15T10:04:14.696Z,99824.03
2022-09-15T10:06:22.085Z,99825.88
2022-09-15T10:08:24.949Z,99829.19
2022-09-15T10:10:32.142Z,99837.81
2022-09-15T10:12:42.727Z,99837.03
2022-09-15T10:14:52.489Z,99834.47
2022-09-15T10:17:01.366Z,99841.28
2022-09-15T10:19:04.263Z,99838.91
2022-09-15T10:21:10.066Z,99845.97
2022-09-15T10:23:26.425Z,99849.44
2022-09-15T10:25:49.636Z,99844.25
2022-09-15T10:28:12.464Z,99850.97
2022-09-15T10:30:20.179Z,99848.28
2022-09-15T10:32:29.208Z,99850.91
2022-09-15T10:34:32.752Z,99848.34
2022-09-15T10:36:35.526Z,99857.06
2022-09-15T10:38:43.098Z,99860.38
2022-09-15T10:40:53.880Z,99858.50
2022-09-15T10:43:02.983Z,99871.75
2022-09-15T10:45:19.335Z,99867.94
2022-09-15T10:47:32.482Z,99859.69
2022-09-15T10:49:52.468Z,99852.63
2022-09-15T10:52:07.999Z,99851.47
2022-09-15T10:54:34.111Z,99851.34
2022-09-15T10:56:41.923Z,99854.59
2022-09-15T10:58:58.545Z,99852.03
2022-09-15T11:01:25.521Z,99853.59
2022-09-15T11:03:41.096Z,99858.06
2022-09-15T11:05:54.176Z,99848.56
2022-09-15T11:08:14.015Z,99850.31
2022-09-15T11:10:26.380Z,99846.50
2022-09-15T11:12:43.475Z,99853.44
2022-09-15T11:15:05.973Z,99839.69
2022-09-15T11:17:24.696Z,99859.63
2022-09-15T11:19:57.671Z,99852.06
2022-09-15T11:22:04.958Z,99854.78
2022-09-15T11:24:27.559Z,99850.66
2022-09-15T11:26:37.870Z,99850.75
2022-09-15T11:28:47.303Z,99849.94
2022-09-15T11:30:57.122Z,99852.38
2022-09-15T11:33:04.356Z,99853.94
2022-09-15T11:35:31.148Z,99859.25
2022-09-15T11:37:40.918Z,99858.88
2022-09-15T11:39:49.735Z,99864.38
2022-09-15T11:41:57.429Z,99870.53
2022-09-15T11:44:16.829Z,99858.63
2022-09-15T11:46:26.714Z,99860.34
2022-09-15T11:48:37.155Z,99853.44
2022-09-15T11:50:45.128Z,99861.53
2022-09-15T11:52:54.178Z,99851.38
2022-09-15T11:55:01.977Z,99861.38
2022-09-15T11:57:05.436Z,99860.72
2022-09-15T11:59:19.437Z,99861.69
2022-09-15T12:01:25.492Z,99859.22
2022-09-15T12:03:36.289Z,99865.34
2022-09-15T12:05:43.660Z,99866.78
2022-09-15T12:07:51.348Z,99867.84
2022-09-15T12:09:54.142Z,99860.28
2022-09-15T12:12:00.825Z,99863.22
2022-09-15T12:14:05.747Z,99861.13
2022-09-15T12:16:09.743Z,99852.63
2022-09-15T12:18:38.116Z,99860.75
2022-09-15T12:20:49.845Z,99858.66
2022-09-15T12:22:59.066Z,99850.34
2022-09-15T12:25:06.667Z,99851.53
2022-09-15T12:27:16.729Z,99851.69
2022-09-15T12:29:42.187Z,99848.78
2022-09-15T12:31:46.911Z,99841.09
2022-09-15T12:33:55.588Z,99848.88
2022-09-15T12:36:52.883Z,99843.81
2022-09-15T12:38:55.898Z,99844.31
2022-09-15T12:41:00.042Z,99843.84
2022-09-15T12:43:04.491Z,99859.25
2022-09-15T12:45:08.559Z,99857.75
2022-09-15T12:47:23.128Z,99872.56
2022-09-15T12:49:31.508Z,99860.53
2022-09-15T12:51:35.608Z,99864.69
2022-09-15T12:53:49.819Z,99873.84
2022-09-15T12:55:55.380Z,99881.22
2022-09-15T12:58:00.609Z,99882.69
2022-09-15T13:00:33.623Z,99881.25
2022-09-15T13:02:44.476Z,99871.59
2022-09-15T13:04:55.305Z,99876.19
2022-09-15T13:07:32.083Z,99881.69
2022-09-15T13:09:45.527Z,99882.75
2022-09-15T13:11:51.220Z,99883.78
2022-09-15T13:13:58.744Z,99873.56
2022-09-15T13:16:03.322Z,99881.06
2022-09-15T13:18:07.041Z,99875.53
2022-09-15T13:20:16.694Z,99881.59
2022-09-15T13:22:27.211Z,99875.75
2022-09-15T13:24:48.444Z,99873.25
2022-09-15T13:26:55.639Z,99866.28
2022-09-15T13:28:59.035Z,99879.50
2022-09-15T13:31:18.832Z,99876.91
2022-09-15T13:36:10.988Z,99877.72
2022-09-15T13:38:47.248Z,99880.72
2022-09-15T13:41:23.395Z,99884.56
2022-09-15T13:43:50.369Z,99872.63
2022-09-15T13:46:06.388Z,99882.59
2022-09-15T13:48:30.905Z,99880.19
2022-09-15T13:50:38.225Z,99884.53
2022-09-15T13:52:54.811Z,99876.44
2022-09-15T13:55:19.326Z,99876.91
2022-09-15T13:58:54.680Z,99874.25
2022-09-15T13:59:46.255Z,99874.88
2022-09-15T14:01:49.191Z,99878.13
2022-09-15T14:03:54.496Z,99870.25
2022-09-15T14:05:57.732Z,99866.81
2022-09-15T14:08:05.105Z,99869.31
2022-09-15T14:10:19.795Z,99874.88
2022-09-15T14:12:24.042Z,99875.38
2022-09-15T14:14:38.946Z,99872.75
2022-09-15T14:16:50.814Z,99871.03
2022-09-15T14:18:55.179Z,99876.00
2022-09-15T14:21:00.436Z,99872.16
2022-09-15T14:23:03.303Z,99875.78
2022-09-15T14:25:09.210Z,99871.44
2022-09-15T14:27:13.283Z,99870.56
2022-09-15T14:29:21.351Z,99870.88
2022-09-15T14:31:33.218Z,99871.00
2022-09-15T14:33:38.881Z,99874.13
2022-09-15T14:35:42.038Z,99873.13
2022-09-15T14:37:49.749Z,99878.34
2022-09-15T14:39:56.572Z,99874.81
2022-09-15T14:46:44.174Z,99876.72
2022-09-15T14:48:47.034Z,99877.78
2022-09-15T14:51:01.158Z,99885.66
2022-09-15T14:53:07.535Z,99884.00
2022-09-15T14:55:15.475Z,99882.78
2022-09-15T14:57:21.927Z,99871.50
2022-09-15T14:59:32.735Z,99879.00
2022-09-15T15:01:38.708Z,99876.31
2022-09-15T15:03:49.010Z,99874.16
2022-09-15T15:06:07.464Z,99877.50
2022-09-15T15:08:27.407Z,99868.03
2022-09-15T15:10:35.629Z,99868.94
2022-09-15T15:12:43.122Z,99867.34
2022-09-15T15:14:47.582Z,99867.47
2022-09-15T15:16:51.377Z,99865.16
2022-09-15T15:18:57.003Z,99868.06
2022-09-15T15:21:00.180Z,99864.69
2022-09-15T15:23:17.768Z,99868.47
2022-09-15T15:25:27.505Z,99873.91
2022-09-15T15:27:43.748Z,99881.88
2022-09-15T15:29:47.890Z,99881.88
2022-09-15T15:31:50.715Z,99883.06
2022-09-15T15:33:57.061Z,99883.44
2022-09-15T15:36:07.971Z,99876.72
2022-09-15T15:38:17.393Z,99885.31
2022-09-15T15:40:23.135Z,99876.91
2022-09-15T15:42:28.409Z,99872.69
2022-09-15T15:44:32.138Z,99879.69
2022-09-15T15:46:54.417Z,99876.31
2022-09-15T15:48:57.201Z,99877.72
2022-09-15T15:51:00.467Z,99884.22
2022-09-15T15:53:06.894Z,99880.41
2022-09-15T15:55:14.500Z,99883.47
2022-09-15T15:57:25.679Z,99880.88
2022-09-15T15:59:28.460Z,99883.50
2022-09-15T16:01:31.293Z,99886.97
2022-09-15T16:03:35.398Z,99883.63
2022-09-15T16:05:39.021Z,99884.50
2022-09-15T16:07:42.393Z,99879.25
2022-09-15T16:09:45.739Z,99882.78
2022-09-15T16:11:48.717Z,99883.50
2022-09-15T16:13:51.756Z,99887.16
2022-09-15T16:15:56.695Z,99880.97
2022-09-15T16:17:59.590Z,99893.34
2022-09-15T16:20:03.792Z,99887.00
2022-09-15T16:22:06.830Z,99893.34
2022-09-15T16:24:14.266Z,99893.25
2022-09-15T16:26:21.388Z,99894.28
2022-09-15T16:28:24.204Z,99902.06
2022-09-15T16:30:27.021Z,99899.22
2022-09-15T16:32:31.382Z,99900.34
2022-09-15T16:34:34.228Z,99898.69
2022-09-15T16:36:38.533Z,99898.69
2022-09-15T16:38:42.963Z,99893.72
2022-09-15T16:40:45.628Z,99896.81
2022-09-15T16:42:48.765Z,99896.06
2022-09-15T16:44:51.574Z,99899.41
2022-09-15T16:46:54.392Z,99901.06
2022-09-15T16:48:57.235Z,99897.56
2022-09-15T16:51:23.005Z,99903.63
2022-09-15T16:53:26.538Z,99902.72
2022-09-15T16:55:35.131Z,99903.56
2022-09-15T16:57:38.011Z,99902.63
2022-09-15T16:59:40.808Z,99905.22
2022-09-15T17:01:43.770Z,99899.94
2022-09-15T17:03:46.679Z,99907.91
2022-09-15T17:05:51.030Z,99912.31
2022-09-15T17:07:53.834Z,99914.13
2022-09-15T17:09:58.007Z,99909.75
2022-09-15T17:12:00.811Z,99912.47
2022-09-15T17:14:03.576Z,99913.47
2022-09-15T17:16:06.882Z,99916.28
2022-09-15T17:18:13.316Z,99910.31
2022-09-15T17:20:16.682Z,99910.41
2022-09-15T17:22:19.514Z,99915.78
2022-09-15T17:24:22.507Z,99915.88
2022-09-15T17:26:31.350Z,99915.03
2022-09-15T17:28:36.498Z,99913.44
2022-09-15T17:30:39.259Z,99917.97
2022-09-15T17:32:42.156Z,99908.53
2022-09-15T17:34:46.110Z,99919.19
2022-09-15T17:36:49.160Z,99926.34
2022-09-15T17:38:52.052Z,99925.59
2022-09-15T17:40:56.180Z,99916.00
2022-09-15T17:43:00.638Z,99921.41
2022-09-15T17:45:03.345Z,99920.16
2022-09-15T17:47:06.331Z,99913.94
2022-09-15T17:49:09.109Z,99919.22
2022-09-15T17:51:16.964Z,99915.66
2022-09-15T17:53:22.561Z,99921.94
2022-09-15T17:55:28.677Z,99929.94
2022-09-15T17:57:31.633Z,99925.66
2022-09-15T17:59:35.863Z,99923.03
2022-09-15T18:01:38.731Z,99925.84
2022-09-15T18:03:44.285Z,99919.72
2022-09-15T18:05:47.090Z,99915.38
2022-09-15T18:07:50.161Z,99915.38
2022-09-15T18:09:52.944Z,99915.38
2022-09-15T18:11:55.694Z,99918.16
2022-09-15T18:13:58.556Z,99921.69
2022-09-15T18:16:06.646Z,99919.09
2022-09-15T18:18:14.217Z,99919.22
2022-09-15T18:20:19.062Z,99924.56
2022-09-15T18:22:24.107Z,99931.63
2022-09-15T18:24:26.884Z,99937.91
2022-09-15T18:26:29.658Z,99935.31
2022-09-15T18:28:32.411Z,99939.72
2022-09-15T18:30:40.428Z,99944.94
2022-09-15T18:32:44.860Z,99939.78
2022-09-15T18:34:49.001Z,99944.34
2022-09-15T18:36:51.790Z,99944.44
2022-09-15T18:38:54.634Z,99944.53
2022-09-15T18:40:58.175Z,99943.72
2022-09-15T18:43:01.008Z,99948.22
2022-09-15T18:45:03.985Z,99945.56
2022-09-15T18:47:06.753Z,99949.13
2022-09-15T18:49:10.848Z,99952.66
2022-09-15T18:51:19.713Z,99954.44
2022-09-15T18:53:27.153Z,99959.69
2022-09-15T18:55:30.041Z,99961.44
2022-09-15T18:57:35.224Z,99960.53
2022-09-15T18:59:38.898Z,99962.31
2022-09-15T19:01:41.783Z,99962.38
2022-09-15T19:03:44.808Z,99964.06
2022-09-15T19:05:49.000Z,99970.19
2022-09-15T19:07:51.795Z,99969.31
2022-09-15T19:09:56.631Z,99971.97
2022-09-15T19:11:59.746Z,99977.28
2022-09-15T19:14:02.519Z,99979.88
2022-09-15T19:16:06.418Z,99982.47
2022-09-15T19:18:09.212Z,99977.22
2022-09-15T19:20:14.886Z,99984.22
2022-09-15T19:22:19.065Z,99981.56
2022-09-15T19:24:21.778Z,99977.13
2022-09-15T19:26:28.575Z,99985.84
2022-09-15T19:28:31.949Z,99991.06
2022-09-15T19:30:34.774Z,99991.06
2022-09-15T19:32:38.192Z,99991.03
2022-09-15T19:34:42.139Z,99994.47
2022-09-15T19:36:44.952Z,99988.34
2022-09-15T19:38:49.027Z,99987.47
2022-09-15T19:40:51.832Z,99986.84
2022-09-15T19:42:54.551Z,99995.66
2022-09-15T19:44:57.300Z,99991.34
2022-09-15T19:47:00.205Z,99992.31
2022-09-15T19:49:03.948Z,100000.28
2022-09-15T19:51:07.535Z,99999.41
2022-09-15T19:53:10.284Z,99997.59
2022-09-15T19:55:14.477Z,99997.56
2022-09-15T19:57:17.296Z,99999.31
2022-09-15T19:59:20.937Z,100006.38
2022-09-15T20:01:24.401Z,99996.03
2022-09-15T20:03:28.427Z,100005.72
2022-09-15T20:05:31.222Z,100005.88
2022-09-15T20:07:34.035Z,100006.91
2022-09-15T20:09:36.833Z,100009.47
2022-09-15T20:11:40.873Z,100021.72
2022-09-15T20:13:43.993Z,100023.38
2022-09-15T20:15:56.438Z,100028.38
2022-09-15T20:17:59.146Z,100020.88
2022-09-15T20:20:01.982Z,100021.31
2022-09-15T20:22:05.068Z,100026.84
2022-09-15T20:24:08.345Z,100023.25
2022-09-15T20:26:13.246Z,100029.09
2022-09-15T20:28:17.329Z,100019.69
2022-09-15T20:30:20.756Z,100025.81
2022-09-15T20:32:28.152Z,100022.31
2022-09-15T20:34:31.340Z,100022.28
2022-09-15T20:36:36.894Z,100028.38
2022-09-15T20:38:40.562Z,100032.69
2022-09-15T20:40:43.375Z,100029.13
2022-09-15T20:42:47.582Z,100042.34
2022-09-15T20:44:51.715Z,100031.91
2022-09-15T20:46:54.820Z,100035.50
2022-09-15T20:48:57.534Z,100027.72
2022-09-15T20:51:04.013Z,100032.91
2022-09-15T20:53:06.751Z,100037.44
2022-09-15T20:55:10.374Z,100026.03
2022-09-15T20:57:13.295Z,100033.09
2022-09-15T20:59:16.190Z,100032.16
2022-09-15T21:01:23.049Z,100042.63
2022-09-15T21:03:26.137Z,100041.78
2022-09-15T21:05:28.894Z,100038.31
2022-09-15T21:07:31.746Z,100040.09
2022-09-15T21:09:34.560Z,100032.25
2022-09-15T21:11:37.438Z,100033.94
2022-09-15T21:13:41.337Z,100027.84
2022-09-15T21:15:44.110Z,100048.09
2022-09-15T21:17:48.223Z,100054.34
2022-09-15T21:19:51.006Z,100048.25
2022-09-15T21:21:54.858Z,100047.25
2022-09-15T21:24:01.192Z,100059.69
2022-09-15T21:26:06.261Z,100058.59
2022-09-15T21:28:09.025Z,100054.28
2022-09-15T21:30:12.760Z,100053.53
2022-09-15T21:32:16.046Z,100056.19
2022-09-15T21:34:20.347Z,100062.50
2022-09-15T21:36:24.837Z,100063.47
2022-09-15T21:38:27.504Z,100059.31
2022-09-15T21:40:30.417Z,100059.41
2022-09-15T21:42:33.481Z,100069.94
2022-09-15T21:44:36.428Z,100072.63
2022-09-15T21:46:39.353Z,100076.84
2022-09-15T21:48:42.216Z,100067.19
2022-09-15T21:50:51.056Z,100068.78
2022-09-15T21:52:53.763Z,100073.19
2022-09-15T21:54:56.508Z,100069.69
2022-09-15T21:56:59.278Z,100067.06
2022-09-15T21:59:03.629Z,100069.69
2022-09-15T22:01:12.268Z,100072.31
2022-09-15T22:03:15.070Z,100075.13
2022-09-15T22:05:17.827Z,100076.06
2022-09-15T22:07:23.062Z,100080.56
2022-09-15T22:09:26.265Z,100078.94
2022-09-15T22:11:29.145Z,100071.88
2022-09-15T22:13:31.954Z,100074.50
2022-09-15T22:15:34.767Z,100078.91
2022-09-15T22:17:37.543Z,100083.34
2022-09-15T22:19:40.293Z,100082.44
2022-09-15T22:21:43.044Z,100078.13
2022-09-15T22:23:48.462Z,100083.38
2022-09-15T22:25:51.293Z,100079.84
2022-09-15T22:27:54.092Z,100079.72
2022-09-15T22:29:56.819Z,100079.63
2022-09-15T22:31:59.635Z,100080.44
2022-09-15T22:34:02.826Z,100086.50
2022-09-15T22:36:06.174Z,100082.22
2022-09-15T22:38:08.970Z,100080.44
2022-09-15T22:40:13.325Z,100083.88
2022-09-15T22:42:16.043Z,100076.84
2022-09-15T22:44:20.774Z,100078.59
2022-09-15T22:46:23.766Z,100080.38
2022-09-15T22:48:26.674Z,100073.38
2022-09-15T22:50:29.487Z,100081.28
2022-09-15T22:52:32.240Z,100077.88
2022-09-15T22:54:35.318Z,100077.94
2022-09-15T22:56:39.432Z,100074.31
2022-09-15T22:58:44.163Z,100078.75
2022-09-15T23:00:46.949Z,100077.09
2022-09-15T23:02:49.991Z,100075.28
2022-09-15T23:04:54.202Z,100073.13
2022-09-15T23:06:56.959Z,100069.72
2022-09-15T23:09:01.515Z,100070.81
2022-09-15T23:11:05.640Z,100073.88
2022-09-15T23:13:09.926Z,100081.63
2022-09-15T23:15:12.739Z,100072.72
2022-09-15T23:17:15.543Z,100069.16
2022-09-15T23:19:18.347Z,100079.59
2022-09-15T23:21:21.537Z,100078.63
2022-09-15T23:23:24.506Z,100079.53
2022-09-15T23:25:27.242Z,100079.56
2022-09-15T23:27:30.036Z,100082.25
2022-09-15T23:29:34.162Z,100076.91
2022-09-15T23:31:37.058Z,100082.25
2022-09-15T23:33:40.522Z,100095.38
2022-09-15T23:35:43.262Z,100087.56
2022-09-15T23:37:46.079Z,100088.44
2022-09-15T23:39:48.915Z,100089.25
2022-09-15T23:41:51.709Z,100087.34
2022-09-15T23:43:55.470Z,100084.00
2022-09-15T23:45:59.814Z,100094.66
2022-09-15T23:48:02.987Z,100092.06
2022-09-15T23:50:06.613Z,100086.72
2022-09-15T23:52:09.338Z,100086.44
2022-09-15T23:54:12.263Z,100090.22
2022-09-15T23:56:15.107Z,100085.09
2022-09-15T23:58:19.251Z,100085.91
